Time;durP1;ratioP1;P1;durP2;ratioP2;P2;SDS_P1;SDS_P2;PMS_P1;PMS_P2;Temp;Humidity;BMP_temperature;BMP_pressure;BME280_temperature;BME280_humidity;BME280_pressure;Samples;Min_cycle;Max_cycle;Signal;HPM_P1;HPM_P2
2022/10/30 00:04:24;;;;;;;3.63;2.13;;;;;;;;;;10313619;28;20072;-78
2022/10/30 00:09:27;;;;;;;4.68;1.90;;;;;;;;;;10295024;28;20042;-77
2022/10/30 00:14:32;;;;;;;4.60;1.60;;;;;;;;;;10307946;28;20640;-77
2022/10/30 00:19:35;;;;;;;4.32;1.50;;;;;;;;;;10303877;28;20117;-78
2022/10/30 00:24:38;;;;;;;3.20;1.50;;;;;;;;;;10294893;28;20043;-79
2022/10/30 00:29:43;;;;;;;3.53;1.60;;;;;;;;;;10304905;28;20748;-79
2022/10/30 00:34:47;;;;;;;3.15;1.65;;;;;;;;;;10311602;28;20499;-79
2022/10/30 00:39:50;;;;;;;3.78;1.65;;;;;;;;;;10302920;28;20047;-78
2022/10/30 00:44:55;;;;;;;5.18;1.58;;;;;;;;;;10312227;28;20556;-78
2022/10/30 00:50:01;;;;;;;2.85;1.58;;;;;;;;;;10303341;28;20038;-78
2022/10/30 00:55:08;;;;;;;2.67;1.75;;;;;;;;;;10294417;28;20052;-78
2022/10/30 01:00:14;;;;;;;6.35;1.73;;;;;;;;;;10310155;28;20097;-78
2022/10/30 01:05:19;;;;;;;;;;;;;;;;;;10310653;28;20034;-78
2022/10/30 01:10:22;;;;;;;5.07;1.50;;;;;;;;;;10308247;28;19928;-78
2022/10/30 01:15:31;;;;;;;3.22;1.25;;;;;;;;;;10307916;28;20046;-78
2022/10/30 01:20:58;;;;;;;4.32;1.70;;;;;;;;;;10307198;28;20053;-77
2022/10/30 01:26:11;;;;;;;4.45;1.88;;;;;;;;;;10302695;28;20395;-78
2022/10/30 01:31:29;;;;;;;4.15;1.80;;;;;;;;;;10283136;28;20131;-78
2022/10/30 01:36:38;;;;;;;5.28;1.58;;;;;;;;;;10290498;28;20061;-78
2022/10/30 01:41:41;;;;;;;3.17;1.58;;;;;;;;;;10299975;28;20053;-76
2022/10/30 01:47:00;;;;;;;2.75;1.35;;;;;;;;;;10298119;28;20126;-77
2022/10/30 01:52:11;;;;;;;6.60;2.80;;;;;;;;;;10279738;28;20070;-80
2022/10/30 01:57:27;;;;;;;3.38;2.30;;;;;;;;;;10313964;28;20044;-78
2022/10/30 02:02:33;;;;;;;6.07;1.80;;;;;;;;;;10281793;28;20125;-77
2022/10/30 02:07:37;;;;;;;2.70;1.73;;;;;;;;;;10289608;28;20058;-77
2022/10/30 02:12:42;;;;;;;3.95;2.50;;;;;;;;;;10280947;28;20050;-77
2022/10/30 02:17:48;;;;;;;3.42;1.83;;;;;;;;;;10306766;28;20062;-78
2022/10/30 02:22:54;;;;;;;3.38;2.20;;;;;;;;;;10295355;28;20396;-77
2022/10/30 02:27:58;;;;;;;5.70;2.27;;;;;;;;;;10291182;28;20042;-77
2022/10/30 02:33:03;;;;;;;4.57;2.17;;;;;;;;;;10288910;28;20105;-78
2022/10/30 02:38:08;;;;;;;7.50;1.92;;;;;;;;;;10281911;28;20030;-78
2022/10/30 02:43:11;;;;;;;6.15;1.73;;;;;;;;;;10280232;28;20416;-79
2022/10/30 02:48:15;;;;;;;3.75;1.85;;;;;;;;;;10311810;28;20034;-80
2022/10/30 02:53:19;;;;;;;3.85;1.33;;;;;;;;;;10305523;28;20495;-77
2022/10/30 02:58:23;;;;;;;3.95;1.60;;;;;;;;;;10287542;28;20038;-77
2022/10/30 03:03:26;;;;;;;2.38;1.58;;;;;;;;;;10288405;28;20490;-78
2022/10/30 03:08:31;;;;;;;5.72;1.65;;;;;;;;;;10287625;28;20050;-79
2022/10/30 03:13:37;;;;;;;1.77;1.40;;;;;;;;;;10280129;28;20422;-78
2022/10/30 03:18:41;;;;;;;9.35;2.13;;;;;;;;;;10298532;28;20121;-79
2022/10/30 03:23:49;;;;;;;5.80;1.65;;;;;;;;;;10289849;28;20035;-79
2022/10/30 03:28:53;;;;;;;2.70;1.50;;;;;;;;;;10280157;28;20466;-77
2022/10/30 03:33:56;;;;;;;2.65;1.55;;;;;;;;;;10285869;28;20385;-77
2022/10/30 03:39:01;;;;;;;3.35;1.52;;;;;;;;;;10297121;28;20035;-79
2022/10/30 03:44:06;;;;;;;5.78;1.88;;;;;;;;;;10300232;28;20129;-78
2022/10/30 03:49:10;;;;;;;4.35;1.60;;;;;;;;;;10287464;28;20143;-78
2022/10/30 03:54:15;;;;;;;3.97;1.80;;;;;;;;;;10300222;28;20050;-78
2022/10/30 03:59:18;;;;;;;5.53;2.03;;;;;;;;;;10288036;28;20495;-79
2022/10/30 04:04:40;;;;;;;4.13;1.65;;;;;;;;;;10302750;28;20054;-78
2022/10/30 04:09:44;;;;;;;2.83;1.50;;;;;;;;;;10318794;28;20648;-78
2022/10/30 04:14:47;;;;;;;1.75;1.20;;;;;;;;;;10301999;28;20668;-78
2022/10/30 04:19:51;;;;;;;2.88;1.40;;;;;;;;;;10294674;28;20572;-79
2022/10/30 04:24:55;;;;;;;3.28;1.35;;;;;;;;;;10309716;28;20057;-77
2022/10/30 04:29:59;;;;;;;2.80;1.60;;;;;;;;;;10290882;28;20129;-78
2022/10/30 04:35:03;;;;;;;2.85;1.45;;;;;;;;;;10280431;28;20078;-77
2022/10/30 04:40:09;;;;;;;2.65;1.10;;;;;;;;;;10317210;28;20511;-78
2022/10/30 04:45:25;;;;;;;1.60;1.33;;;;;;;;;;10274613;28;20387;-79
2022/10/30 04:50:28;;;;;;;5.18;1.48;;;;;;;;;;10281403;28;20062;-78
2022/10/30 04:55:33;;;;;;;3.10;1.23;;;;;;;;;;10313781;28;20038;-78
2022/10/30 05:00:37;;;;;;;3.10;1.58;;;;;;;;;;10301667;28;20500;-78
2022/10/30 05:05:46;;;;;;;4.03;1.73;;;;;;;;;;10299510;28;20051;-79
2022/10/30 05:10:51;;;;;;;4.95;1.33;;;;;;;;;;10316590;28;20054;-78
2022/10/30 05:15:55;;;;;;;3.83;1.70;;;;;;;;;;10299998;28;20043;-78
2022/10/30 05:20:58;;;;;;;3.97;1.70;;;;;;;;;;10286275;28;20042;-78
2022/10/30 05:26:03;;;;;;;5.93;1.88;;;;;;;;;;10295112;28;20282;-78
2022/10/30 05:31:07;;;;;;;3.58;1.33;;;;;;;;;;10297778;28;20543;-79
2022/10/30 05:36:36;;;;;;;3.63;1.55;;;;;;;;;;10315227;28;20046;-78
2022/10/30 05:41:41;;;;;;;3.10;1.35;;;;;;;;;;10305303;28;20175;-78
2022/10/30 05:46:45;;;;;;;4.13;1.70;;;;;;;;;;10306231;28;20125;-78
2022/10/30 05:51:57;;;;;;;3.63;1.52;;;;;;;;;;10289827;28;20074;-77
2022/10/30 05:57:02;;;;;;;4.28;1.40;;;;;;;;;;10302446;28;20051;-78
2022/10/30 06:02:08;;;;;;;5.13;1.05;;;;;;;;;;10293435;28;20494;-79
2022/10/30 06:07:12;;;;;;;2.60;1.40;;;;;;;;;;10289766;28;20046;-79
2022/10/30 06:12:17;;;;;;;2.95;1.27;;;;;;;;;;10289344;28;20046;-78
2022/10/30 06:17:37;;;;;;;4.32;1.23;;;;;;;;;;10321372;28;20553;-78
2022/10/30 06:22:56;;;;;;;3.92;1.50;;;;;;;;;;10279206;28;20050;-78
2022/10/30 06:28:04;;;;;;;2.63;1.13;;;;;;;;;;10283402;28;20035;-80
2022/10/30 06:33:09;;;;;;;4.13;1.88;;;;;;;;;;10268784;28;20043;-76
2022/10/30 06:38:16;;;;;;;4.50;1.70;;;;;;;;;;10290868;28;20038;-78
2022/10/30 06:43:21;;;;;;;2.40;1.33;;;;;;;;;;10270244;28;20049;-77
2022/10/30 06:48:31;;;;;;;2.05;1.05;;;;;;;;;;10285223;28;20562;-78
2022/10/30 06:53:35;;;;;;;3.38;1.70;;;;;;;;;;10280673;28;20042;-79
2022/10/30 06:59:18;;;;;;;2.47;1.52;;;;;;;;;;10194730;29;20046;-80
2022/10/30 07:04:28;;;;;;;2.55;1.50;;;;;;;;;;10253197;28;20471;-77
2022/10/30 07:09:34;;;;;;;4.18;1.65;;;;;;;;;;10277105;28;20046;-77
2022/10/30 07:14:39;;;;;;;2.47;1.10;;;;;;;;;;10276789;28;20051;-76
2022/10/30 07:20:06;;;;;;;3.65;1.20;;;;;;;;;;10315522;28;20125;-79
2022/10/30 07:25:10;;;;;;;2.63;1.40;;;;;;;;;;10286057;28;20078;-77
2022/10/30 07:30:40;;;;;;;3.22;1.52;;;;;;;;;;10285087;28;20050;-77
2022/10/30 07:36:22;;;;;;;4.75;1.67;;;;;;;;;;10306383;28;20046;-81
2022/10/30 07:41:38;;;;;;;2.67;1.35;;;;;;;;;;10296556;28;20062;-76
2022/10/30 07:47:12;;;;;;;3.13;1.40;;;;;;;;;;10298373;28;20062;-77
2022/10/30 07:52:38;;;;;;;2.38;1.60;;;;;;;;;;10307092;28;20117;-80
2022/10/30 07:57:43;;;;;;;3.05;1.73;;;;;;;;;;10293775;28;20050;-79
2022/10/30 08:03:06;;;;;;;2.67;1.92;;;;;;;;;;10308700;28;20050;-79
2022/10/30 08:08:29;;;;;;;3.80;2.00;;;;;;;;;;10308784;28;20050;-79
2022/10/30 08:13:44;;;;;;;3.92;1.95;;;;;;;;;;10287814;28;20050;-77
2022/10/30 08:18:49;;;;;;;6.65;2.38;;;;;;;;;;10296530;28;20038;-79
2022/10/30 08:23:55;;;;;;;5.50;2.22;;;;;;;;;;10282348;28;20078;-79
2022/10/30 08:29:01;;;;;;;;;;;;;;;;;;10293784;28;20154;-79
2022/10/30 08:34:08;;;;;;;3.28;1.48;;;;;;;;;;10292185;28;20369;-80
2022/10/30 08:39:22;;;;;;;3.55;1.50;;;;;;;;;;10283849;28;20034;-77
2022/10/30 08:44:32;;;;;;;2.85;1.48;;;;;;;;;;10302460;28;20462;-80
2022/10/30 08:50:14;;;;;;;3.53;2.30;;;;;;;;;;10314473;28;20059;-79
2022/10/30 08:55:19;;;;;;;;;;;;;;;;;;10305880;28;20566;-79
2022/10/30 09:00:22;;;;;;;4.80;1.77;;;;;;;;;;10307420;28;19921;-77
2022/10/30 09:05:46;;;;;;;3.80;1.98;;;;;;;;;;10318299;28;20089;-77
2022/10/30 09:10:55;;;;;;;3.50;1.90;;;;;;;;;;10318174;28;20050;-80
2022/10/30 09:16:01;;;;;;;6.13;2.00;;;;;;;;;;10291982;28;20046;-78
2022/10/30 09:21:08;;;;;;;3.80;2.00;;;;;;;;;;10308114;28;20039;-79
2022/10/30 09:26:18;;;;;;;3.75;1.42;;;;;;;;;;10296731;28;20038;-80
2022/10/30 09:31:29;;;;;;;6.43;1.50;;;;;;;;;;10311131;28;20392;-80
2022/10/30 09:36:34;;;;;;;4.00;1.63;;;;;;;;;;10292005;28;20075;-81
2022/10/30 09:41:58;;;;;;;4.13;1.70;;;;;;;;;;10294121;28;20507;-80
2022/10/30 09:47:19;;;;;;;2.70;1.30;;;;;;;;;;10311407;28;20112;-79
2022/10/30 09:52:39;;;;;;;7.60;1.25;;;;;;;;;;10305461;28;20053;-81
2022/10/30 09:57:58;;;;;;;6.07;1.73;;;;;;;;;;10290070;28;20042;-81
2022/10/30 10:03:16;;;;;;;4.78;1.30;;;;;;;;;;10281317;28;20522;-80
2022/10/30 10:08:45;;;;;;;2.35;1.30;;;;;;;;;;10308273;28;20042;-80
2022/10/30 10:14:12;;;;;;;3.03;1.27;;;;;;;;;;10311812;28;20422;-82
2022/10/30 10:19:21;;;;;;;5.82;1.52;;;;;;;;;;10288963;28;20042;-79
2022/10/30 10:24:28;;;;;;;2.63;1.35;;;;;;;;;;10320564;28;20034;-81
2022/10/30 10:29:48;;;;;;;3.95;1.25;;;;;;;;;;10304971;28;20067;-83
2022/10/30 10:35:10;;;;;;;3.92;1.42;;;;;;;;;;10306851;28;20499;-79
2022/10/30 10:40:28;;;;;;;4.13;1.65;;;;;;;;;;10306511;28;20591;-81
2022/10/30 10:45:39;;;;;;;2.78;1.45;;;;;;;;;;10311416;28;20038;-81
2022/10/30 10:50:48;;;;;;;4.20;1.92;;;;;;;;;;10321771;28;20050;-80
2022/10/30 10:55:56;;;;;;;2.35;1.45;;;;;;;;;;10297329;28;20042;-81
2022/10/30 11:01:00;;;;;;;2.58;1.17;;;;;;;;;;10306294;28;20050;-80
2022/10/30 11:06:19;;;;;;;4.43;2.38;;;;;;;;;;10309267;28;20057;-80
2022/10/30 11:11:23;;;;;;;4.85;1.42;;;;;;;;;;10318371;28;20616;-82
2022/10/30 11:16:31;;;;;;;4.28;1.90;;;;;;;;;;10318014;28;20042;-80
2022/10/30 11:21:39;;;;;;;3.42;1.40;;;;;;;;;;10302736;28;20519;-81
2022/10/30 11:26:43;;;;;;;5.22;1.20;;;;;;;;;;10315184;28;20050;-79
2022/10/30 11:31:47;;;;;;;3.40;1.60;;;;;;;;;;10318617;28;20538;-81
2022/10/30 11:36:51;;;;;;;2.88;1.10;;;;;;;;;;10318499;28;20056;-79
2022/10/30 11:42:01;;;;;;;3.08;1.00;;;;;;;;;;10315489;28;20588;-78
2022/10/30 11:47:06;;;;;;;3.97;1.48;;;;;;;;;;10307534;28;20055;-78
2022/10/30 11:52:11;;;;;;;4.63;1.33;;;;;;;;;;10267517;28;20043;-79
2022/10/30 11:57:24;;;;;;;3.28;1.38;;;;;;;;;;10307826;28;20045;-78
2022/10/30 12:02:29;;;;;;;2.78;1.30;;;;;;;;;;10304161;28;20039;-79
2022/10/30 12:07:35;;;;;;;3.08;0.98;;;;;;;;;;10325577;28;20039;-78
2022/10/30 12:12:42;;;;;;;2.75;1.25;;;;;;;;;;10325379;28;20053;-78
2022/10/30 12:17:52;;;;;;;3.20;1.40;;;;;;;;;;10310973;28;20049;-78
2022/10/30 12:22:56;;;;;;;5.40;1.23;;;;;;;;;;10306257;28;20054;-78
2022/10/30 12:28:04;;;;;;;7.50;1.90;;;;;;;;;;10307511;28;20418;-78
2022/10/30 12:33:14;;;;;;;1.90;1.27;;;;;;;;;;10288086;28;20537;-78
2022/10/30 12:38:25;;;;;;;3.45;1.33;;;;;;;;;;10299993;28;20043;-78
2022/10/30 12:43:34;;;;;;;3.88;1.40;;;;;;;;;;10315814;28;20037;-78
2022/10/30 12:48:44;;;;;;;2.88;1.23;;;;;;;;;;10296646;28;20045;-78
2022/10/30 12:53:57;;;;;;;5.50;1.13;;;;;;;;;;10312371;28;20129;-78
2022/10/30 12:59:18;;;;;;;2.80;1.38;;;;;;;;;;10315292;28;20046;-78
2022/10/30 13:04:25;;;;;;;5.03;1.58;;;;;;;;;;10313351;28;20046;-78
2022/10/30 13:09:37;;;;;;;3.78;1.00;;;;;;;;;;10305126;28;20538;-78
2022/10/30 13:14:45;;;;;;;2.88;1.10;;;;;;;;;;10289482;28;20043;-78
2022/10/30 13:19:49;;;;;;;2.60;1.40;;;;;;;;;;10313936;28;20050;-79
2022/10/30 13:25:01;;;;;;;1.70;1.08;;;;;;;;;;10320842;28;20049;-79
2022/10/30 13:30:13;;;;;;;5.75;1.00;;;;;;;;;;10312314;28;20054;-78
2022/10/30 13:35:25;;;;;;;1.73;1.02;;;;;;;;;;10318109;28;20499;-78
2022/10/30 13:40:34;;;;;;;3.45;1.17;;;;;;;;;;10319801;28;20042;-78
2022/10/30 13:45:56;;;;;;;4.43;0.93;;;;;;;;;;10311681;28;20062;-78
2022/10/30 13:51:32;;;;;;;2.70;0.70;;;;;;;;;;10285486;28;20027;-78
2022/10/30 13:56:36;;;;;;;1.77;0.90;;;;;;;;;;10307283;28;20362;-79
2022/10/30 14:01:49;;;;;;;3.25;1.33;;;;;;;;;;10301547;28;20038;-79
2022/10/30 14:06:57;;;;;;;2.25;1.00;;;;;;;;;;10315819;28;20047;-78
2022/10/30 14:12:21;;;;;;;2.28;0.82;;;;;;;;;;10312329;28;20399;-79
2022/10/30 14:17:26;;;;;;;1.55;0.80;;;;;;;;;;10313851;28;20039;-78
2022/10/30 14:22:29;;;;;;;5.13;1.48;;;;;;;;;;10320980;28;20038;-78
2022/10/30 14:27:34;;;;;;;2.17;1.20;;;;;;;;;;10320061;28;20053;-79
2022/10/30 14:32:49;;;;;;;1.45;0.75;;;;;;;;;;10271403;28;20093;-79
2022/10/30 14:37:56;;;;;;;3.90;1.40;;;;;;;;;;10320486;28;20522;-78
2022/10/30 14:43:02;;;;;;;4.40;1.23;;;;;;;;;;10308909;28;20406;-79
2022/10/30 14:48:16;;;;;;;3.75;1.20;;;;;;;;;;10308988;28;20462;-78
2022/10/30 14:53:33;;;;;;;2.53;0.75;;;;;;;;;;10319433;28;20046;-78
2022/10/30 14:58:38;;;;;;;1.85;1.10;;;;;;;;;;10301472;28;20049;-79
2022/10/30 15:03:53;;;;;;;2.35;1.40;;;;;;;;;;10318034;28;20038;-78
2022/10/30 15:09:19;;;;;;;2.72;1.10;;;;;;;;;;10312150;28;20038;-79
2022/10/30 15:14:28;;;;;;;1.83;1.10;;;;;;;;;;10311631;28;20035;-78
2022/10/30 15:19:43;;;;;;;3.03;0.98;;;;;;;;;;10312498;28;20093;-78
2022/10/30 15:24:47;;;;;;;3.20;1.00;;;;;;;;;;10303122;28;20050;-82
2022/10/30 15:29:54;;;;;;;2.45;0.90;;;;;;;;;;10308328;28;20053;-79
2022/10/30 15:35:01;;;;;;;2.15;0.85;;;;;;;;;;10296093;28;20043;-83
2022/10/30 15:40:16;;;;;;;1.13;0.90;;;;;;;;;;10299575;28;20042;-81
2022/10/30 15:45:22;;;;;;;3.97;0.80;;;;;;;;;;10326718;28;20038;-79
2022/10/30 15:50:27;;;;;;;1.83;0.80;;;;;;;;;;10312842;28;20053;-81
2022/10/30 15:55:32;;;;;;;2.47;0.90;;;;;;;;;;10301181;28;20498;-79
2022/10/30 16:00:38;;;;;;;3.77;0.93;;;;;;;;;;10310809;28;20046;-81
2022/10/30 16:05:43;;;;;;;1.40;0.88;;;;;;;;;;10308685;28;20052;-80
2022/10/30 16:10:47;;;;;;;4.68;0.82;;;;;;;;;;10326141;28;20050;-82
2022/10/30 16:15:50;;;;;;;3.20;0.90;;;;;;;;;;10326776;28;20062;-80
2022/10/30 16:20:57;;;;;;;1.55;1.00;;;;;;;;;;10328052;28;20050;-81
2022/10/30 16:26:00;;;;;;;1.83;0.90;;;;;;;;;;10318425;28;20046;-78
2022/10/30 16:31:06;;;;;;;5.55;1.60;;;;;;;;;;10315996;28;20042;-80
2022/10/30 16:36:15;;;;;;;2.75;1.48;;;;;;;;;;10323837;28;20042;-79
2022/10/30 16:41:19;;;;;;;3.92;1.15;;;;;;;;;;10312009;28;20076;-80
2022/10/30 16:46:39;;;;;;;2.72;1.40;;;;;;;;;;10319859;28;20047;-78
2022/10/30 16:51:44;;;;;;;2.90;1.85;;;;;;;;;;10310617;28;20662;-80
2022/10/30 16:56:50;;;;;;;3.03;1.77;;;;;;;;;;10300102;28;20097;-78
2022/10/30 17:01:58;;;;;;;2.13;1.50;;;;;;;;;;10304983;28;20129;-78
2022/10/30 17:07:07;;;;;;;2.33;1.70;;;;;;;;;;10308208;28;20038;-77
2022/10/30 17:12:14;;;;;;;3.30;1.98;;;;;;;;;;10312919;28;20088;-78
2022/10/30 17:17:23;;;;;;;3.38;2.00;;;;;;;;;;10309546;28;20044;-79
2022/10/30 17:22:29;;;;;;;4.53;2.17;;;;;;;;;;10290679;28;20086;-79
2022/10/30 17:27:44;;;;;;;6.10;2.20;;;;;;;;;;10293751;28;20039;-79
2022/10/30 17:32:54;;;;;;;1.90;1.60;;;;;;;;;;10310160;28;20046;-79
2022/10/30 17:37:58;;;;;;;3.60;2.00;;;;;;;;;;10316383;28;20038;-78
2022/10/30 17:43:02;;;;;;;3.40;1.70;;;;;;;;;;10288712;28;20039;-78
2022/10/30 17:48:13;;;;;;;3.58;1.95;;;;;;;;;;10309365;28;20066;-78
2022/10/30 17:53:20;;;;;;;6.50;2.20;;;;;;;;;;10317432;28;20038;-78
2022/10/30 17:58:24;;;;;;;4.13;2.35;;;;;;;;;;10292323;28;20088;-78
2022/10/30 18:03:27;;;;;;;3.47;2.05;;;;;;;;;;10303214;28;20043;-77
2022/10/30 18:08:32;;;;;;;4.35;1.92;;;;;;;;;;10308469;28;20050;-78
2022/10/30 18:13:36;;;;;;;3.10;1.95;;;;;;;;;;10322185;28;20038;-79
2022/10/30 18:18:39;;;;;;;3.60;2.08;;;;;;;;;;10305641;28;20045;-80
2022/10/30 18:23:44;;;;;;;3.92;2.42;;;;;;;;;;10283295;28;20058;-80
2022/10/30 18:28:55;;;;;;;6.95;2.60;;;;;;;;;;10304266;28;20055;-79
2022/10/30 18:33:59;;;;;;;5.85;3.40;;;;;;;;;;10307998;28;20031;-79
2022/10/30 18:39:03;;;;;;;6.45;3.17;;;;;;;;;;10313285;28;20049;-79
2022/10/30 18:44:07;;;;;;;5.07;2.58;;;;;;;;;;10288741;28;20049;-78
2022/10/30 18:49:10;;;;;;;5.13;3.20;;;;;;;;;;10292845;28;20061;-81
2022/10/30 18:54:16;;;;;;;4.90;2.95;;;;;;;;;;10288525;28;20541;-82
2022/10/30 18:59:19;;;;;;;4.90;2.70;;;;;;;;;;10313457;28;20115;-81
2022/10/30 19:04:23;;;;;;;8.57;4.70;;;;;;;;;;10294446;28;20035;-78
2022/10/30 19:09:27;;;;;;;8.45;5.57;;;;;;;;;;10307321;28;20515;-78
2022/10/30 19:14:31;;;;;;;8.90;5.72;;;;;;;;;;10305941;28;20034;-78
2022/10/30 19:19:34;;;;;;;14.85;5.45;;;;;;;;;;10307695;28;20058;-81
2022/10/30 19:24:39;;;;;;;9.88;4.72;;;;;;;;;;10296916;28;20042;-79
2022/10/30 19:29:42;;;;;;;6.95;4.13;;;;;;;;;;10312188;28;20057;-80
2022/10/30 19:34:45;;;;;;;7.38;4.25;;;;;;;;;;10328464;28;20402;-82
2022/10/30 19:39:50;;;;;;;6.57;3.83;;;;;;;;;;10321142;28;20054;-79
2022/10/30 19:44:53;;;;;;;4.80;3.25;;;;;;;;;;10328455;28;20053;-80
2022/10/30 19:49:56;;;;;;;4.32;2.60;;;;;;;;;;10318787;28;20039;-80
2022/10/30 19:55:01;;;;;;;4.78;2.40;;;;;;;;;;10318130;28;20054;-80
2022/10/30 20:00:11;;;;;;;4.97;2.95;;;;;;;;;;10320039;28;20065;-81
2022/10/30 20:05:16;;;;;;;4.97;3.50;;;;;;;;;;10313099;28;20531;-81
2022/10/30 20:10:21;;;;;;;9.73;3.20;;;;;;;;;;10320260;28;20042;-79
2022/10/30 20:15:26;;;;;;;11.93;3.20;;;;;;;;;;10307854;28;20580;-79
2022/10/30 20:20:32;;;;;;;5.00;3.00;;;;;;;;;;10312944;28;20558;-77
2022/10/30 20:25:37;;;;;;;4.55;2.83;;;;;;;;;;10319388;28;20046;-78
2022/10/30 20:30:41;;;;;;;4.85;2.40;;;;;;;;;;10318666;28;20042;-78
2022/10/30 20:35:44;;;;;;;3.67;2.47;;;;;;;;;;10309548;28;20474;-79
2022/10/30 20:40:49;;;;;;;4.95;2.80;;;;;;;;;;10313074;28;20049;-78
2022/10/30 20:45:53;;;;;;;4.63;2.97;;;;;;;;;;10320103;28;20057;-77
2022/10/30 20:50:57;;;;;;;4.22;2.65;;;;;;;;;;10309789;28;20045;-78
2022/10/30 20:56:02;;;;;;;4.38;2.33;;;;;;;;;;10319425;28;20053;-77
2022/10/30 21:01:06;;;;;;;4.28;2.38;;;;;;;;;;10319110;28;20553;-77
2022/10/30 21:06:09;;;;;;;4.80;2.63;;;;;;;;;;10318679;28;20093;-78
2022/10/30 21:11:14;;;;;;;2.70;1.95;;;;;;;;;;10305644;28;20050;-77
2022/10/30 21:16:17;;;;;;;2.13;1.50;;;;;;;;;;10321575;28;20494;-79
2022/10/30 21:21:20;;;;;;;4.93;1.58;;;;;;;;;;10306637;28;20035;-78
2022/10/30 21:26:28;;;;;;;3.03;1.83;;;;;;;;;;10316170;28;20114;-79
2022/10/30 21:31:32;;;;;;;3.78;1.90;;;;;;;;;;10326507;28;20043;-79
2022/10/30 21:36:35;;;;;;;3.58;2.03;;;;;;;;;;10321919;28;20406;-82
2022/10/30 21:41:40;;;;;;;3.05;2.22;;;;;;;;;;10313266;28;20097;-80
2022/10/30 21:46:43;;;;;;;5.60;2.30;;;;;;;;;;10322480;28;20383;-81
2022/10/30 21:51:49;;;;;;;3.55;1.88;;;;;;;;;;10323933;28;20050;-81
2022/10/30 21:56:54;;;;;;;4.53;2.05;;;;;;;;;;10303638;28;20058;-80
2022/10/30 22:01:57;;;;;;;4.30;2.35;;;;;;;;;;10314909;28;20046;-80
2022/10/30 22:07:00;;;;;;;4.25;2.78;;;;;;;;;;10297490;28;20053;-81
2022/10/30 22:12:05;;;;;;;5.47;2.80;;;;;;;;;;10296862;28;20045;-80
2022/10/30 22:17:09;;;;;;;3.28;1.92;;;;;;;;;;10317607;28;20507;-79
2022/10/30 22:22:12;;;;;;;3.00;1.90;;;;;;;;;;10319104;28;20615;-80
2022/10/30 22:27:17;;;;;;;6.20;2.03;;;;;;;;;;10296353;28;20453;-79
2022/10/30 22:32:21;;;;;;;4.57;2.47;;;;;;;;;;10291501;28;20045;-79
2022/10/30 22:37:25;;;;;;;4.97;1.90;;;;;;;;;;10310734;28;20043;-81
2022/10/30 22:42:30;;;;;;;6.93;2.17;;;;;;;;;;10304442;28;20039;-80
2022/10/30 22:47:33;;;;;;;2.72;1.58;;;;;;;;;;10319493;28;20065;-81
2022/10/30 22:52:36;;;;;;;3.50;1.98;;;;;;;;;;10303328;28;20044;-80
2022/10/30 22:57:41;;;;;;;4.53;2.30;;;;;;;;;;10311470;28;20414;-79
2022/10/30 23:02:44;;;;;;;3.45;2.25;;;;;;;;;;10289729;28;20038;-79
2022/10/30 23:07:47;;;;;;;4.38;1.88;;;;;;;;;;10304395;28;20064;-82
2022/10/30 23:12:52;;;;;;;2.22;1.48;;;;;;;;;;10312705;28;20050;-79
2022/10/30 23:17:56;;;;;;;3.40;1.85;;;;;;;;;;10315972;28;20058;-80
2022/10/30 23:22:59;;;;;;;6.60;1.50;;;;;;;;;;10299611;28;20158;-81
2022/10/30 23:28:05;;;;;;;3.05;1.73;;;;;;;;;;10300506;28;20046;-81
2022/10/30 23:33:08;;;;;;;4.13;2.00;;;;;;;;;;10320202;28;20117;-81
2022/10/30 23:38:11;;;;;;;2.42;1.65;;;;;;;;;;10312527;28;20054;-81
2022/10/30 23:43:16;;;;;;;2.20;1.80;;;;;;;;;;10304192;28;20042;-81
2022/10/30 23:48:19;;;;;;;2.85;1.60;;;;;;;;;;10314138;28;20050;-80
2022/10/30 23:53:23;;;;;;;3.33;1.20;;;;;;;;;;10309579;28;20068;-80
2022/10/30 23:58:27;;;;;;;2.03;1.00;;;;;;;;;;10307360;28;20049;-80
